Time;durP1;ratioP1;P1;durP2;ratioP2;P2;SDS_P1;SDS_P2;PMS_P1;PMS_P2;Temp;Humidity;BMP_temperature;BMP_pressure;BME280_temperature;BME280_humidity;BME280_pressure;Samples;Min_cycle;Max_cycle;Signal;HPM_P1;HPM_P2
2022/12/28 00:01:33;;;;;;;2.37;1.20;;;;;;;8.45;79.73;101370.08;1826282;77;21596;-57
2022/12/28 00:04:09;;;;;;;4.03;1.60;;;;;;;8.46;79.85;101373.10;1857000;77;21138;-58
2022/12/28 00:06:35;;;;;;;2.37;1.50;;;;;;;8.48;80.47;101356.91;1856431;77;21507;-57
2022/12/28 00:09:03;;;;;;;2.80;1.67;;;;;;;8.49;80.93;101340.24;1856993;75;21108;-57
2022/12/28 00:11:32;;;;;;;3.22;1.20;;;;;;;8.52;81.23;101338.45;1857087;77;21060;-57
2022/12/28 00:14:02;;;;;;;2.30;1.25;;;;;;;8.53;81.39;101342.36;1857018;77;21147;-58
2022/12/28 00:16:33;;;;;;;3.33;1.32;;;;;;;8.57;81.48;101339.22;1856962;77;21450;-57
2022/12/28 00:19:04;;;;;;;1.47;0.90;;;;;;;8.59;81.96;101321.67;1857017;77;21448;-56
2022/12/28 00:21:33;;;;;;;3.08;1.47;;;;;;;8.59;81.86;101336.11;1857114;77;21549;-57
2022/12/28 00:24:03;;;;;;;5.65;1.95;;;;;;;8.59;81.76;101330.86;1857083;76;21161;-56
2022/12/28 00:26:34;;;;;;;2.60;1.67;;;;;;;8.59;81.77;101311.17;1856939;77;21171;-57
2022/12/28 00:29:03;;;;;;;2.52;1.42;;;;;;;8.58;81.59;101306.84;1857008;77;21541;-57
2022/12/28 00:31:33;;;;;;;2.50;1.25;;;;;;;8.57;81.54;101312.97;1857116;77;21480;-56
2022/12/28 00:34:03;;;;;;;3.58;1.40;;;;;;;8.55;81.72;101305.58;1856990;77;21056;-57
2022/12/28 00:36:32;;;;;;;2.27;1.57;;;;;;;8.55;81.69;101313.45;1857097;77;21476;-57
2022/12/28 00:39:01;;;;;;;1.57;1.05;;;;;;;8.55;81.81;101298.56;1856927;76;21124;-57
2022/12/28 00:41:30;;;;;;;3.65;1.52;;;;;;;8.57;81.82;101319.53;1857080;77;21076;-57
2022/12/28 00:43:58;;;;;;;1.12;0.80;;;;;;;8.59;81.88;101311.17;1857093;77;21135;-57
2022/12/28 00:46:27;;;;;;;1.45;1.00;;;;;;;8.62;81.75;101317.68;1857043;77;21028;-57
2022/12/28 00:48:57;;;;;;;2.37;1.42;;;;;;;8.63;81.79;101299.70;1857016;77;21080;-58
2022/12/28 00:51:27;;;;;;;1.95;1.20;;;;;;;8.64;81.84;101310.17;1856876;77;21443;-58
2022/12/28 00:53:56;;;;;;;2.98;0.98;;;;;;;8.67;81.75;101311.89;1857074;77;21123;-57
2022/12/28 00:56:24;;;;;;;2.00;1.15;;;;;;;8.67;81.68;101304.87;1856897;77;21048;-57
2022/12/28 00:58:58;;;;;;;2.25;0.93;;;;;;;8.66;81.85;101304.90;1857190;77;21534;-57
2022/12/28 01:01:27;;;;;;;;;;;;;;;8.67;81.83;101304.02;1859831;77;21122;-56
2022/12/28 01:03:56;;;;;;;0.75;0.60;;;;;;;8.68;82.19;101301.78;1856804;77;20235;-56
2022/12/28 01:06:26;;;;;;;2.15;1.02;;;;;;;8.67;82.03;101296.14;1877567;76;21070;-57
2022/12/28 01:08:55;;;;;;;1.92;0.80;;;;;;;8.66;82.01;101289.14;1857080;77;21118;-57
2022/12/28 01:11:27;;;;;;;1.75;0.70;;;;;;;8.64;82.18;101289.17;1859407;75;21492;-58
2022/12/28 01:13:58;;;;;;;1.60;0.70;;;;;;;8.65;82.45;101283.47;1864246;75;21151;-57
2022/12/28 01:16:35;;;;;;;2.50;0.90;;;;;;;8.64;82.73;101285.70;1864074;75;21140;-56
2022/12/28 01:19:07;;;;;;;1.72;0.75;;;;;;;8.64;82.75;101280.44;1860231;77;21039;-56
2022/12/28 01:21:36;;;;;;;0.68;0.50;;;;;;;8.63;82.95;101267.77;1853026;77;21113;-55
2022/12/28 01:24:07;;;;;;;1.35;0.78;;;;;;;8.61;83.10;101267.37;1851388;77;21520;-54
2022/12/28 01:26:36;;;;;;;1.92;1.20;;;;;;;8.57;83.31;101262.64;1826199;78;21105;-47
2022/12/28 01:29:05;;;;;;;2.87;1.40;;;;;;;8.56;83.32;101258.73;1831868;78;21449;-48
2022/12/28 01:31:34;;;;;;;0.80;0.60;;;;;;;8.53;83.32;101258.83;1827100;78;21153;-52
2022/12/28 01:34:03;;;;;;;2.10;1.05;;;;;;;8.53;83.38;101252.27;1860148;76;21117;-52
2022/12/28 01:36:33;;;;;;;1.60;0.70;;;;;;;8.53;83.44;101250.95;1864394;77;21457;-53
2022/12/28 01:39:04;;;;;;;2.65;0.90;;;;;;;8.52;83.58;101249.20;1864524;77;21054;-51
2022/12/28 01:41:36;;;;;;;1.27;0.57;;;;;;;8.52;83.69;101247.89;1864363;77;21105;-50
2022/12/28 01:44:09;;;;;;;0.98;0.50;;;;;;;8.41;84.11;101242.42;1837152;77;21016;-50
2022/12/28 01:46:43;;;;;;;1.50;0.70;;;;;;;8.34;84.61;101239.94;1864678;77;21128;-50
2022/12/28 01:49:15;;;;;;;1.42;0.68;;;;;;;8.29;85.38;101235.66;1861292;77;21042;-47
2022/12/28 01:51:49;;;;;;;1.27;0.57;;;;;;;8.29;85.54;101228.25;1815275;78;21034;-48
2022/12/28 01:54:20;;;;;;;1.55;0.72;;;;;;;8.31;85.91;101226.45;1864338;77;21054;-46
2022/12/28 01:56:50;;;;;;;2.67;0.72;;;;;;;8.36;85.81;101225.91;1870613;77;21136;-45
2022/12/28 01:59:22;;;;;;;2.85;1.20;;;;;;;8.43;85.77;101226.22;1829849;77;21509;-45
2022/12/28 02:01:52;;;;;;;1.47;0.95;;;;;;;8.49;85.94;101229.16;1833178;78;21500;-46
2022/12/28 02:04:25;;;;;;;3.02;1.52;;;;;;;8.57;86.40;101227.20;1852093;77;21525;-50
2022/12/28 02:06:55;;;;;;;1.85;1.32;;;;;;;8.62;86.66;101222.72;1864102;77;21074;-49
2022/12/28 02:09:42;;;;;;;3.95;1.75;;;;;;;8.68;86.67;101221.25;1833303;78;21454;-46
2022/12/28 02:12:14;;;;;;;5.10;1.98;;;;;;;8.72;86.82;101212.86;1838642;76;21074;-52
2022/12/28 02:14:44;;;;;;;5.08;2.50;;;;;;;8.81;87.18;101221.83;1831828;78;21567;-53
2022/12/28 02:17:14;;;;;;;6.92;2.25;;;;;;;8.86;87.00;101226.52;1831762;78;21129;-51
2022/12/28 02:19:47;;;;;;;3.80;1.87;;;;;;;8.92;86.92;101233.85;1845083;77;21509;-52
2022/12/28 02:22:38;;;;;;;6.10;2.22;;;;;;;8.94;86.71;101230.73;1864490;77;21183;-46
2022/12/28 02:25:27;;;;;;;5.62;1.95;;;;;;;8.97;86.79;101228.04;1857779;77;21708;-48
2022/12/28 02:28:32;;;;;;;5.25;1.72;;;;;;;9.00;86.73;101231.88;1863215;77;21083;-53
2022/12/28 02:31:07;;;;;;;4.47;2.60;;;;;;;9.04;86.76;101229.63;1866067;77;21455;-48
2022/12/28 02:33:44;;;;;;;4.20;2.02;;;;;;;9.08;86.91;101215.50;1875429;75;21068;-59
2022/12/28 02:36:15;;;;;;;5.65;2.00;;;;;;;9.12;87.01;101225.02;1863425;76;21085;-60
2022/12/28 02:38:47;;;;;;;16.00;3.25;;;;;;;9.13;86.88;101230.70;1865702;77;21082;-60
2022/12/28 02:41:25;;;;;;;4.58;2.60;;;;;;;9.17;87.08;101212.64;1869673;76;21074;-60
2022/12/28 02:43:55;;;;;;;7.20;3.37;;;;;;;9.21;87.05;101221.31;1831950;78;21552;-59
2022/12/28 02:52:26;;;;;;;8.45;3.77;;;;;;;9.30;87.21;101207.93;1833255;78;21083;-61
2022/12/28 02:58:02;;;;;;;8.95;4.37;;;;;;;9.33;87.44;101226.69;1866303;77;21046;-60
2022/12/28 03:00:52;;;;;;;10.38;4.08;;;;;;;9.32;87.33;101224.98;1866375;75;21120;-61
2022/12/28 03:03:30;;;;;;;8.50;4.58;;;;;;;9.32;87.21;101226.29;1855680;75;21503;-61
2022/12/28 03:09:06;;;;;;;9.23;3.62;;;;;;;9.32;86.84;101226.29;1822930;77;21610;-61
2022/12/28 03:11:50;;;;;;;11.75;5.42;;;;;;;9.30;86.68;101222.38;1860209;76;21017;-61
2022/12/28 03:14:26;;;;;;;12.73;4.97;;;;;;;9.30;86.61;101217.59;1856642;77;21155;-62
2022/12/28 03:31:09;;;;;;;14.07;5.87;;;;;;;9.25;87.35;101229.05;1847402;77;21062;-63
2022/12/28 03:33:47;;;;;;;9.55;4.83;;;;;;;9.26;87.46;101235.20;1849034;77;21156;-62
2022/12/28 03:36:20;;;;;;;14.35;5.08;;;;;;;9.26;87.48;101239.99;1847822;76;21194;-62
2022/12/28 03:39:03;;;;;;;11.22;5.30;;;;;;;9.25;87.64;101233.00;1854468;76;21082;-60
2022/12/28 03:41:35;;;;;;;13.88;6.80;;;;;;;9.27;87.61;101243.02;1866196;77;21077;-60
2022/12/28 03:44:11;;;;;;;16.48;7.42;;;;;;;9.27;87.58;101240.39;1862683;77;21047;-61
2022/12/28 03:46:48;;;;;;;11.75;6.62;;;;;;;9.30;87.54;101237.30;1825381;78;21160;-61
2022/12/28 03:49:18;;;;;;;19.23;6.28;;;;;;;9.31;87.45;101245.58;1868142;77;21121;-61
2022/12/28 03:51:48;;;;;;;14.55;7.12;;;;;;;9.31;87.43;101254.77;1862182;77;21161;-61
2022/12/28 03:54:18;;;;;;;14.63;6.25;;;;;;;9.30;87.48;101249.12;1861871;77;21554;-61
2022/12/28 03:56:50;;;;;;;14.83;7.87;;;;;;;9.31;87.46;101263.97;1862215;77;21548;-61
2022/12/28 03:59:20;;;;;;;13.05;7.35;;;;;;;9.32;87.43;101264.40;1864956;77;21458;-60
2022/12/28 04:01:51;;;;;;;16.52;7.30;;;;;;;9.32;87.39;101257.37;1865961;77;21116;-61
2022/12/28 04:04:19;;;;;;;14.53;7.28;;;;;;;9.33;87.31;101271.36;1865934;77;21038;-61
2022/12/28 04:06:49;;;;;;;12.85;5.60;;;;;;;9.30;87.29;101275.41;1865741;77;21148;-58
2022/12/28 04:09:18;;;;;;;8.85;4.78;;;;;;;9.30;87.23;101271.46;1865601;75;21069;-59
2022/12/28 04:14:39;;;;;;;9.95;4.37;;;;;;;9.25;87.01;101282.07;1787028;80;21178;-58
2022/12/28 04:17:08;;;;;;;9.78;4.25;;;;;;;9.22;86.90;101288.70;1829970;78;21066;-58
2022/12/28 04:19:38;;;;;;;6.70;3.52;;;;;;;9.18;86.84;101300.20;1861988;77;21512;-58
2022/12/28 04:22:07;;;;;;;7.53;4.58;;;;;;;9.14;86.82;101298.55;1834566;78;21031;-58
2022/12/28 04:24:37;;;;;;;11.40;4.90;;;;;;;9.10;86.79;101310.05;1867324;77;21050;-57
2022/12/28 04:27:05;;;;;;;9.50;4.35;;;;;;;9.06;86.77;101322.38;1837066;77;21031;-57
2022/12/28 04:29:34;;;;;;;8.58;3.80;;;;;;;9.02;86.77;101328.61;1828271;78;21158;-57
2022/12/28 04:32:05;;;;;;;5.70;2.90;;;;;;;8.98;86.78;101336.13;1827206;78;21054;-58
2022/12/28 04:34:34;;;;;;;23.47;13.90;;;;;;;8.94;86.73;101339.73;1828324;78;21030;-58
2022/12/28 04:37:07;;;;;;;7.87;4.37;;;;;;;8.90;86.70;101342.88;1830629;77;21160;-60
2022/12/28 04:39:37;;;;;;;11.33;4.53;;;;;;;8.83;86.63;101350.02;1828308;78;21537;-60
2022/12/28 04:42:06;;;;;;;6.85;3.85;;;;;;;8.76;86.61;101355.01;1828285;78;21148;-60
2022/12/28 04:44:34;;;;;;;7.10;2.90;;;;;;;8.71;86.62;101357.32;1828218;78;21115;-60
2022/12/28 04:47:03;;;;;;;9.45;4.10;;;;;;;8.65;86.55;101362.22;1830978;77;21576;-61
2022/12/28 04:49:31;;;;;;;7.12;3.35;;;;;;;8.61;86.46;101368.44;1828212;78;21180;-58
2022/12/28 04:52:00;;;;;;;7.08;3.95;;;;;;;8.53;86.41;101373.00;1828210;78;21062;-61
2022/12/28 04:54:29;;;;;;;8.83;4.03;;;;;;;8.46;86.43;101374.41;1828307;78;21054;-60
2022/12/28 04:56:57;;;;;;;4.72;2.85;;;;;;;8.43;86.46;101381.52;1831012;77;21064;-59
2022/12/28 04:59:26;;;;;;;9.25;3.80;;;;;;;8.39;86.48;101388.55;1851763;77;21058;-59
2022/12/28 05:01:55;;;;;;;7.47;3.47;;;;;;;8.36;86.50;101397.78;1852476;77;21464;-59
2022/12/28 05:04:23;;;;;;;7.90;3.55;;;;;;;8.36;86.53;101400.41;1852600;77;21078;-62
2022/12/28 05:06:52;;;;;;;7.15;3.58;;;;;;;8.37;86.49;101407.82;1852721;77;21086;-62
2022/12/28 05:09:21;;;;;;;5.55;2.42;;;;;;;8.36;86.46;101410.91;1861985;77;21033;-62
2022/12/28 05:11:50;;;;;;;7.03;3.62;;;;;;;8.34;86.43;101420.56;1867265;77;21104;-54
2022/12/28 05:14:18;;;;;;;6.25;3.30;;;;;;;8.33;86.33;101416.20;1858723;76;21469;-53
2022/12/28 05:16:51;;;;;;;8.80;3.40;;;;;;;8.30;86.32;101423.70;1853517;77;21135;-57
2022/12/28 05:19:19;;;;;;;6.22;3.45;;;;;;;8.27;86.31;101437.31;1856899;77;21041;-60
2022/12/28 05:21:48;;;;;;;9.88;4.67;;;;;;;8.24;86.25;101446.54;1862192;77;21034;-60
2022/12/28 05:24:17;;;;;;;11.20;4.47;;;;;;;8.21;86.15;101450.09;1862124;77;21056;-60
2022/12/28 05:26:45;;;;;;;11.75;5.05;;;;;;;8.18;86.16;101460.63;1844398;77;21063;-61
2022/12/28 05:29:14;;;;;;;8.93;5.67;;;;;;;8.13;86.03;101465.09;1834321;78;21032;-60
2022/12/28 05:31:42;;;;;;;14.68;6.50;;;;;;;8.08;86.00;101469.12;1834480;78;21106;-60
2022/12/28 05:34:11;;;;;;;11.35;5.47;;;;;;;8.03;86.04;101477.95;1834342;78;21027;-61
2022/12/28 05:36:40;;;;;;;9.33;5.10;;;;;;;7.96;85.98;101475.88;1842916;77;21045;-60
2022/12/28 05:39:08;;;;;;;16.15;7.08;;;;;;;7.85;86.05;101485.67;1853520;77;21018;-64
2022/12/28 05:41:37;;;;;;;9.60;4.65;;;;;;;7.80;86.09;101483.56;1853458;77;21069;-58
2022/12/28 05:44:06;;;;;;;14.87;6.08;;;;;;;7.76;86.08;101493.67;1853544;77;21127;-59
2022/12/28 05:46:35;;;;;;;14.05;7.42;;;;;;;7.72;86.13;101496.34;1849624;77;21141;-60
2022/12/28 05:49:04;;;;;;;8.63;4.80;;;;;;;7.67;86.13;101509.09;1834307;78;21529;-59
2022/12/28 05:51:33;;;;;;;10.08;5.25;;;;;;;7.66;86.18;101504.30;1834319;78;21549;-59
2022/12/28 05:54:03;;;;;;;15.08;6.47;;;;;;;7.64;86.14;101506.08;1834286;78;21225;-60
2022/12/28 05:56:32;;;;;;;13.55;5.90;;;;;;;7.64;86.04;101508.70;1834483;77;21122;-60
2022/12/28 05:59:04;;;;;;;12.95;6.95;;;;;;;7.62;86.00;101517.49;1851955;77;21535;-60
2022/12/28 06:01:36;;;;;;;12.13;5.42;;;;;;;7.59;86.02;101510.52;1853578;77;21465;-60
2022/12/28 06:04:07;;;;;;;16.10;7.67;;;;;;;7.59;86.02;101519.69;1853572;77;21026;-60
2022/12/28 06:06:36;;;;;;;12.65;6.03;;;;;;;7.58;85.94;101525.84;1853578;77;21151;-61
2022/12/28 06:09:05;;;;;;;7.53;3.22;;;;;;;7.58;85.94;101521.91;1836981;77;21062;-60
2022/12/28 06:11:33;;;;;;;18.98;8.35;;;;;;;7.58;85.76;101529.77;1834407;78;21521;-60
2022/12/28 06:14:04;;;;;;;15.85;7.65;;;;;;;7.58;85.72;101537.63;1833794;78;21099;-60
2022/12/28 06:16:35;;;;;;;18.37;7.58;;;;;;;7.58;85.71;101540.67;1831049;78;21088;-60
2022/12/28 06:19:06;;;;;;;23.02;7.53;;;;;;;7.59;85.59;101548.98;1827228;77;21098;-60
2022/12/28 06:21:37;;;;;;;22.30;9.80;;;;;;;7.57;85.58;101548.13;1817430;79;21101;-60
2022/12/28 06:24:07;;;;;;;18.30;8.50;;;;;;;7.54;85.44;101559.50;1817388;78;21156;-62
2022/12/28 06:26:39;;;;;;;20.40;8.80;;;;;;;7.52;85.47;101562.59;1847531;77;21029;-62
2022/12/28 06:29:08;;;;;;;13.13;7.03;;;;;;;7.50;85.56;101563.06;1870104;77;21017;-57
2022/12/28 06:31:42;;;;;;;17.10;7.35;;;;;;;7.43;85.49;101566.64;1870044;77;21098;-57
2022/12/28 06:34:11;;;;;;;20.37;8.58;;;;;;;7.40;85.62;101566.70;1870173;77;21553;-57
2022/12/28 06:36:42;;;;;;;24.95;10.03;;;;;;;7.39;85.52;101576.30;1863014;77;21107;-62
2022/12/28 06:39:13;;;;;;;20.25;9.65;;;;;;;7.35;85.38;101589.87;1862115;77;21041;-65
2022/12/28 06:41:42;;;;;;;25.50;10.72;;;;;;;7.31;85.29;101586.88;1863209;76;21127;-63
2022/12/28 06:44:13;;;;;;;23.35;9.30;;;;;;;7.33;85.19;101598.20;1870083;77;21017;-62
2022/12/28 06:46:42;;;;;;;10.63;5.58;;;;;;;7.30;85.10;101603.50;1859644;77;21040;-62
2022/12/28 06:49:10;;;;;;;23.52;9.33;;;;;;;7.27;84.91;101603.52;1830879;78;21055;-62
2022/12/28 06:51:40;;;;;;;26.00;9.73;;;;;;;7.24;84.89;101610.09;1831004;78;21052;-62
2022/12/28 06:54:10;;;;;;;22.30;9.20;;;;;;;7.23;84.87;101611.00;1830903;78;21482;-63
2022/12/28 06:56:39;;;;;;;17.55;8.65;;;;;;;7.20;84.82;101619.33;1832625;77;21178;-65
2022/12/28 06:59:08;;;;;;;21.45;8.80;;;;;;;7.16;84.70;101621.11;1857380;77;21542;-63
2022/12/28 07:01:40;;;;;;;21.82;9.10;;;;;;;7.12;84.69;101641.67;1858320;77;21542;-63
2022/12/28 07:04:10;;;;;;;16.82;6.20;;;;;;;7.13;84.69;101653.87;1858315;77;21029;-64
2022/12/28 07:06:41;;;;;;;20.15;8.05;;;;;;;7.10;84.49;101652.16;1858303;77;21185;-63
2022/12/28 07:09:13;;;;;;;24.90;9.68;;;;;;;7.08;84.48;101662.21;1865816;77;21177;-63
2022/12/28 07:11:43;;;;;;;16.97;7.42;;;;;;;7.06;84.53;101660.91;1870049;77;21009;-63
2022/12/28 07:14:11;;;;;;;19.87;8.23;;;;;;;7.07;84.51;101673.14;1870072;77;21472;-63
2022/12/28 07:16:41;;;;;;;20.75;8.53;;;;;;;7.01;84.25;101684.98;1869982;76;21057;-63
2022/12/28 07:19:09;;;;;;;16.80;7.35;;;;;;;6.99;84.12;101682.83;1845179;75;21555;-63
2022/12/28 07:21:41;;;;;;;20.62;8.05;;;;;;;6.95;83.81;101695.08;1828380;78;21030;-63
2022/12/28 07:24:28;;;;;;;17.42;7.15;;;;;;;6.94;83.91;101699.02;1788931;79;21627;-60
2022/12/28 07:26:57;;;;;;;19.52;7.35;;;;;;;6.91;83.95;101712.98;1790170;80;21188;-60
2022/12/28 07:29:26;;;;;;;13.95;6.62;;;;;;;6.92;84.02;101719.11;1791590;79;21148;-61
2022/12/28 07:31:54;;;;;;;19.98;9.25;;;;;;;6.93;83.94;101719.52;1791411;80;21061;-61
2022/12/28 07:34:23;;;;;;;16.42;8.08;;;;;;;6.93;83.76;101722.14;1791494;80;21133;-57
2022/12/28 07:36:51;;;;;;;12.40;6.58;;;;;;;6.91;83.83;101720.84;1790802;80;21165;-59
2022/12/28 07:39:20;;;;;;;15.83;6.50;;;;;;;6.92;83.67;101732.20;1791521;80;21061;-59
2022/12/28 07:41:49;;;;;;;12.85;6.20;;;;;;;6.92;83.61;101742.22;1791510;80;21055;-59
2022/12/28 07:44:19;;;;;;;19.60;6.62;;;;;;;6.93;83.49;101757.48;1791789;79;21093;-59
2022/12/28 07:46:47;;;;;;;16.55;6.53;;;;;;;6.85;83.24;101754.93;1790686;80;21137;-59
2022/12/28 07:49:16;;;;;;;11.93;4.75;;;;;;;6.81;83.26;101774.16;1791493;80;21135;-61
2022/12/28 07:51:45;;;;;;;10.72;5.40;;;;;;;6.74;83.02;101773.77;1791511;80;21078;-61
2022/12/28 07:54:14;;;;;;;7.65;3.35;;;;;;;6.71;82.88;101779.02;1791557;80;21598;-63
2022/12/28 07:56:43;;;;;;;9.43;4.50;;;;;;;6.65;82.46;101790.39;1791167;80;21090;-64
2022/12/28 07:59:17;;;;;;;8.53;3.72;;;;;;;6.60;82.65;101803.94;1791250;80;21678;-64
2022/12/28 08:01:42;;;;;;;5.53;2.50;;;;;;;6.61;82.52;101805.69;1791280;80;21046;-61
2022/12/28 08:04:16;;;;;;;3.70;1.75;;;;;;;6.54;82.34;101807.45;1791521;80;21066;-59
2022/12/28 08:06:49;;;;;;;5.10;2.67;;;;;;;6.46;82.08;101821.03;1791431;80;21160;-57
2022/12/28 08:09:18;;;;;;;4.65;2.00;;;;;;;6.42;82.00;101824.55;1790950;79;21097;-59
2022/12/28 08:11:48;;;;;;;6.05;2.58;;;;;;;6.35;81.66;101825.45;1791548;80;21113;-59
2022/12/28 08:14:17;;;;;;;6.58;2.00;;;;;;;6.30;81.55;101831.13;1791498;79;21058;-59
2022/12/28 08:16:45;;;;;;;9.03;2.80;;;;;;;6.28;81.60;101831.58;1791482;79;21081;-61
2022/12/28 08:19:14;;;;;;;7.45;2.55;;;;;;;6.30;81.40;101836.36;1790815;80;21081;-62
2022/12/28 08:21:45;;;;;;;7.12;2.58;;;;;;;6.27;81.31;101838.98;1756841;82;21145;-61
2022/12/28 08:24:16;;;;;;;4.65;2.15;;;;;;;6.28;81.20;101844.66;1751184;81;21269;-59
2022/12/28 08:26:47;;;;;;;6.97;2.45;;;;;;;6.27;81.18;101842.48;1764947;80;21140;-58
2022/12/28 08:29:18;;;;;;;5.80;2.22;;;;;;;6.28;81.08;101838.11;1774456;80;21196;-57
2022/12/28 08:31:48;;;;;;;9.30;2.65;;;;;;;6.25;81.19;101840.73;1781008;80;21111;-64
2022/12/28 08:34:21;;;;;;;6.78;2.60;;;;;;;6.26;81.07;101842.48;1783205;80;21547;-61
2022/12/28 08:36:50;;;;;;;5.10;1.72;;;;;;;6.27;81.01;101838.98;1778798;79;21136;-61
2022/12/28 08:39:18;;;;;;;8.53;2.20;;;;;;;6.29;80.66;101842.45;1776544;80;21102;-60
2022/12/28 08:41:47;;;;;;;8.00;2.65;;;;;;;6.27;79.92;101845.52;1799083;79;21113;-58
2022/12/28 08:44:16;;;;;;;6.28;1.90;;;;;;;6.33;80.17;101849.44;1807254;79;21062;-62
2022/12/28 08:46:44;;;;;;;9.95;2.27;;;;;;;6.36;79.91;101853.33;1807190;79;21066;-61
2022/12/28 08:49:13;;;;;;;4.85;2.40;;;;;;;6.33;79.72;101854.67;1807138;79;21065;-62
2022/12/28 08:51:42;;;;;;;5.95;2.27;;;;;;;6.33;79.81;101855.98;1807351;79;21054;-62
2022/12/28 08:54:16;;;;;;;3.80;1.98;;;;;;;6.34;79.75;101857.28;1807255;79;21133;-61
2022/12/28 08:56:44;;;;;;;4.33;1.87;;;;;;;6.33;79.50;101846.82;1806319;79;21067;-61
2022/12/28 08:59:18;;;;;;;2.17;1.10;;;;;;;6.29;79.08;101851.61;1807219;79;21369;-61
2022/12/28 09:01:47;;;;;;;4.85;2.10;;;;;;;6.17;78.02;101861.69;1807289;79;21066;-62
2022/12/28 09:04:18;;;;;;;6.15;2.62;;;;;;;6.18;78.66;101864.30;1807352;79;21563;-62
2022/12/28 09:06:47;;;;;;;4.37;1.77;;;;;;;6.16;78.71;101861.23;1807301;79;21056;-61
2022/12/28 09:09:18;;;;;;;2.27;1.17;;;;;;;6.09;78.19;101860.84;1807228;79;21038;-61
2022/12/28 09:11:47;;;;;;;5.90;2.27;;;;;;;6.07;78.37;101866.08;1807215;79;21058;-61
2022/12/28 09:14:16;;;;;;;3.77;2.05;;;;;;;6.05;78.28;101882.62;1807183;79;21505;-61
2022/12/28 09:16:45;;;;;;;2.10;1.20;;;;;;;5.99;78.02;101885.70;1807225;79;21180;-61
2022/12/28 09:19:15;;;;;;;7.00;2.00;;;;;;;6.00;78.00;101886.56;1807228;79;21186;-62
2022/12/28 09:21:47;;;;;;;4.92;2.12;;;;;;;5.97;78.09;101883.95;1807285;79;21516;-62
2022/12/28 09:24:14;;;;;;;4.22;1.75;;;;;;;6.01;78.22;101886.12;1801876;79;21145;-63
2022/12/28 09:26:43;;;;;;;2.83;1.77;;;;;;;6.06;78.21;101890.47;1794171;80;21966;-61
2022/12/28 09:29:13;;;;;;;2.83;1.47;;;;;;;6.07;78.08;101892.22;1791601;80;21160;-59
2022/12/28 09:31:43;;;;;;;3.30;1.80;;;;;;;6.09;77.97;101891.78;1772049;80;21070;-57
2022/12/28 09:34:12;;;;;;;4.28;1.37;;;;;;;6.10;77.28;101897.42;1794236;80;21073;-60
2022/12/28 09:36:43;;;;;;;7.58;1.57;;;;;;;6.13;77.39;101898.73;1794327;80;21481;-61
2022/12/28 09:39:17;;;;;;;2.72;1.47;;;;;;;6.17;77.11;101899.16;1794128;79;21054;-61
2022/12/28 09:42:05;;;;;;;1.95;1.27;;;;;;;6.18;76.95;101893.06;1794305;80;21061;-59
2022/12/28 09:44:46;;;;;;;7.45;3.15;;;;;;;6.18;76.19;101904.84;1776801;80;21096;-57
2022/12/28 09:47:32;;;;;;;7.53;1.77;;;;;;;6.17;76.39;101907.45;1765243;80;21136;-56
2022/12/28 09:50:11;;;;;;;3.70;1.52;;;;;;;6.14;76.27;101907.03;1775106;80;21152;-58
2022/12/28 09:53:09;;;;;;;5.90;1.95;;;;;;;6.09;75.96;101911.39;1794318;80;21501;-58
2022/12/28 09:55:40;;;;;;;4.78;2.22;;;;;;;5.99;76.00;101922.31;1794315;79;21555;-58
2022/12/28 09:58:16;;;;;;;3.77;1.55;;;;;;;5.85;75.73;101927.08;1735009;81;21588;-57
2022/12/28 10:00:50;;;;;;;4.80;1.45;;;;;;;5.78;75.70;101941.44;1771560;80;21072;-56
2022/12/28 10:03:25;;;;;;;3.27;2.02;;;;;;;5.70;75.35;101925.31;1765616;81;21121;-58
2022/12/28 10:05:57;;;;;;;7.08;1.00;;;;;;;5.67;75.21;101935.34;1756935;80;21124;-60
2022/12/28 10:08:29;;;;;;;4.45;1.75;;;;;;;5.57;74.90;101943.62;1838496;77;21257;-56
2022/12/28 10:11:00;;;;;;;5.65;1.40;;;;;;;5.55;74.70;101948.39;1807188;79;21065;-56
2022/12/28 10:16:24;;;;;;;5.08;1.50;;;;;;;5.56;74.59;101948.84;1808622;79;21178;-56
2022/12/28 10:18:53;;;;;;;5.70;1.40;;;;;;;5.64;74.77;101956.68;1777962;81;21132;-51
2022/12/28 10:21:24;;;;;;;4.65;1.87;;;;;;;5.68;74.78;101960.62;1808594;78;21073;-51
2022/12/28 10:23:55;;;;;;;5.47;1.30;;;;;;;5.78;74.69;101958.42;1780982;79;21061;-56
2022/12/28 10:26:24;;;;;;;2.45;1.65;;;;;;;5.87;74.65;101956.26;1833929;77;21118;-56
2022/12/28 10:28:56;;;;;;;3.35;1.32;;;;;;;5.91;74.01;101967.14;1832330;78;21095;-56
2022/12/28 10:31:36;;;;;;;9.23;1.62;;;;;;;5.95;74.25;101965.41;1841360;78;21472;-54
2022/12/28 10:34:23;;;;;;;6.37;1.62;;;;;;;5.96;73.82;101977.65;1841482;78;21515;-56
2022/12/28 10:36:54;;;;;;;3.08;0.82;;;;;;;5.92;73.54;101975.84;1839888;78;21560;-57
2022/12/28 10:39:30;;;;;;;3.50;1.50;;;;;;;5.83;73.60;101980.66;1842468;78;21123;-56
2022/12/28 10:42:00;;;;;;;3.85;1.70;;;;;;;5.77;73.42;101980.23;1840397;78;21163;-55
2022/12/28 10:44:38;;;;;;;2.65;1.47;;;;;;;5.70;73.52;101990.64;1838989;78;21484;-56
2022/12/28 10:47:26;;;;;;;8.50;2.08;;;;;;;5.65;73.37;101995.87;1839003;78;21108;-57
2022/12/28 10:49:55;;;;;;;4.28;1.90;;;;;;;5.56;72.88;101999.78;1839203;78;21474;-59
2022/12/28 10:52:25;;;;;;;8.95;1.90;;;;;;;5.47;73.16;101995.84;1839008;78;21113;-58
2022/12/28 10:54:54;;;;;;;2.77;1.22;;;;;;;5.39;73.00;101992.78;1842068;78;21134;-59
2022/12/28 10:57:30;;;;;;;5.70;1.37;;;;;;;5.37;72.91;102003.66;1842369;78;21016;-57
2022/12/28 11:00:17;;;;;;;7.67;2.22;;;;;;;5.41;72.87;102005.41;1842555;78;21139;-58
2022/12/28 11:02:45;;;;;;;3.80;1.45;;;;;;;5.46;72.67;102008.45;1842459;78;21540;-56
2022/12/28 11:05:23;;;;;;;4.78;1.60;;;;;;;5.56;72.65;102004.56;1842782;78;21171;-58
2022/12/28 11:08:06;;;;;;;6.30;2.05;;;;;;;5.57;72.19;102015.88;1842559;78;21551;-57
2022/12/28 11:10:36;;;;;;;4.30;2.47;;;;;;;5.65;72.43;102012.00;1841197;77;21057;-55
2022/12/28 11:13:08;;;;;;;7.08;1.40;;;;;;;5.69;72.15;102009.83;1838923;78;21226;-57
2022/12/28 11:15:36;;;;;;;2.72;1.20;;;;;;;5.69;72.27;102012.00;1827015;78;21076;-57
2022/12/28 11:18:17;;;;;;;3.65;1.30;;;;;;;5.73;71.87;102022.88;1814449;79;21527;-57
2022/12/28 11:20:48;;;;;;;4.83;1.57;;;;;;;5.79;71.85;102018.99;1811692;79;21365;-56
2022/12/28 11:23:23;;;;;;;5.50;1.70;;;;;;;5.80;71.35;102025.95;1817210;77;21073;-59
2022/12/28 11:25:52;;;;;;;4.90;1.30;;;;;;;5.75;71.42;102019.83;1820829;79;21090;-58
2022/12/28 11:28:22;;;;;;;3.05;1.42;;;;;;;5.74;71.41;102032.92;1820860;79;21098;-57
2022/12/28 11:30:53;;;;;;;4.35;1.70;;;;;;;5.69;71.64;102031.59;1813772;78;21128;-57
2022/12/28 11:33:30;;;;;;;5.05;1.75;;;;;;;5.69;71.58;102038.12;1804266;79;21493;-59
2022/12/28 11:36:00;;;;;;;3.85;1.20;;;;;;;5.69;71.27;102034.20;1805746;78;21128;-58
2022/12/28 11:38:41;;;;;;;2.58;1.20;;;;;;;5.66;71.29;102040.72;1816482;78;21070;-58
2022/12/28 11:41:12;;;;;;;2.98;1.30;;;;;;;5.66;71.68;102043.34;1816539;79;21112;-58
2022/12/28 11:43:46;;;;;;;4.42;1.25;;;;;;;5.66;71.61;102044.64;1819835;77;21074;-57
2022/12/28 11:46:24;;;;;;;3.55;1.55;;;;;;;5.66;71.50;102046.39;1818323;79;21156;-58
2022/12/28 11:49:02;;;;;;;3.62;1.37;;;;;;;5.66;71.67;102058.16;1819272;79;21217;-58
2022/12/28 11:51:39;;;;;;;11.38;1.60;;;;;;;5.67;71.56;102062.08;1816364;79;21068;-59
2022/12/28 11:54:42;;;;;;;3.92;1.45;;;;;;;5.74;71.58;102059.92;1814558;79;21141;-58
2022/12/28 11:57:12;;;;;;;2.08;1.35;;;;;;;5.71;70.91;102074.28;1731138;80;21097;-58
2022/12/28 11:59:40;;;;;;;3.40;1.60;;;;;;;5.68;70.93;102075.60;1793010;79;21501;-59
2022/12/28 12:02:21;;;;;;;6.60;1.60;;;;;;;5.70;70.92;102076.47;1815455;79;21051;-60
2022/12/28 12:04:50;;;;;;;4.25;1.95;;;;;;;5.71;70.73;102071.67;1820713;79;21554;-58
2022/12/28 12:07:22;;;;;;;5.25;1.45;;;;;;;5.73;70.51;102085.61;1820635;79;21175;-59
2022/12/28 12:10:11;;;;;;;5.03;1.72;;;;;;;5.69;70.25;102089.09;1812561;77;21097;-59
2022/12/28 12:12:48;;;;;;;5.80;1.40;;;;;;;5.71;70.25;102090.41;1813460;79;21064;-58
2022/12/28 12:15:19;;;;;;;5.20;1.75;;;;;;;5.69;70.07;102083.00;1810767;77;21093;-60
2022/12/28 12:17:51;;;;;;;2.47;1.52;;;;;;;5.59;69.05;102097.34;1848113;77;21070;-59
2022/12/28 12:20:26;;;;;;;1.92;0.75;;;;;;;5.57;69.09;102103.00;1844477;77;21097;-59
2022/12/28 12:22:57;;;;;;;5.50;2.08;;;;;;;5.54;68.89;102109.52;1815636;79;21098;-60
2022/12/28 12:25:40;;;;;;;6.22;2.00;;;;;;;5.51;69.10;102108.63;1824440;77;21054;-60